sensor_id;sensor_type;location;lat;lon;timestamp;P1;durP1;ratioP1;P2;durP2;ratioP2
59846;SDS011;45728;48.788;2.302;2023-04-23T00:01:04;5.63;;;2.20;;
59846;SDS011;45728;48.788;2.302;2023-04-23T00:03:31;5.70;;;1.90;;
59846;SDS011;45728;48.788;2.302;2023-04-23T00:06:04;5.80;;;2.35;;
59846;SDS011;45728;48.788;2.302;2023-04-23T00:08:32;6.82;;;2.05;;
59846;SDS011;45728;48.788;2.302;2023-04-23T00:10:58;4.95;;;1.88;;
59846;SDS011;45728;48.788;2.302;2023-04-23T00:13:24;8.10;;;2.55;;
59846;SDS011;45728;48.788;2.302;2023-04-23T00:15:51;5.22;;;2.30;;
59846;SDS011;45728;48.788;2.302;2023-04-23T00:18:17;5.80;;;2.10;;
59846;SDS011;45728;48.788;2.302;2023-04-23T00:20:44;4.45;;;1.88;;
59846;SDS011;45728;48.788;2.302;2023-04-23T00:23:10;7.88;;;2.47;;
59846;SDS011;45728;48.788;2.302;2023-04-23T00:25:36;7.18;;;2.42;;
59846;SDS011;45728;48.788;2.302;2023-04-23T00:28:02;5.65;;;2.30;;
59846;SDS011;45728;48.788;2.302;2023-04-23T00:30:29;4.75;;;2.15;;
59846;SDS011;45728;48.788;2.302;2023-04-23T00:32:55;11.05;;;2.10;;
59846;SDS011;45728;48.788;2.302;2023-04-23T00:35:21;5.55;;;2.10;;
59846;SDS011;45728;48.788;2.302;2023-04-23T00:37:47;12.68;;;2.58;;
59846;SDS011;45728;48.788;2.302;2023-04-23T00:40:13;7.50;;;2.45;;
59846;SDS011;45728;48.788;2.302;2023-04-23T00:42:40;6.93;;;2.83;;
59846;SDS011;45728;48.788;2.302;2023-04-23T00:45:06;10.70;;;2.55;;
59846;SDS011;45728;48.788;2.302;2023-04-23T00:47:33;9.63;;;2.33;;
59846;SDS011;45728;48.788;2.302;2023-04-23T00:50:00;9.45;;;2.97;;
59846;SDS011;45728;48.788;2.302;2023-04-23T00:52:27;6.75;;;2.50;;
59846;SDS011;45728;48.788;2.302;2023-04-23T00:54:54;6.90;;;2.22;;
59846;SDS011;45728;48.788;2.302;2023-04-23T00:57:20;7.07;;;2.40;;
59846;SDS011;45728;48.788;2.302;2023-04-23T00:59:47;7.13;;;2.65;;
59846;SDS011;45728;48.788;2.302;2023-04-23T01:02:14;7.07;;;2.88;;
59846;SDS011;45728;48.788;2.302;2023-04-23T01:04:42;11.05;;;2.47;;
59846;SDS011;45728;48.788;2.302;2023-04-23T01:07:12;8.85;;;2.40;;
59846;SDS011;45728;48.788;2.302;2023-04-23T01:09:38;7.55;;;2.65;;
59846;SDS011;45728;48.788;2.302;2023-04-23T01:12:05;8.25;;;2.50;;
59846;SDS011;45728;48.788;2.302;2023-04-23T01:14:31;5.93;;;2.30;;
59846;SDS011;45728;48.788;2.302;2023-04-23T01:16:58;8.05;;;2.13;;
59846;SDS011;45728;48.788;2.302;2023-04-23T01:19:24;8.65;;;2.40;;
59846;SDS011;45728;48.788;2.302;2023-04-23T01:21:50;6.43;;;2.05;;
59846;SDS011;45728;48.788;2.302;2023-04-23T01:24:17;9.07;;;2.30;;
59846;SDS011;45728;48.788;2.302;2023-04-23T01:26:43;7.78;;;2.53;;
59846;SDS011;45728;48.788;2.302;2023-04-23T01:29:10;14.02;;;3.00;;
59846;SDS011;45728;48.788;2.302;2023-04-23T01:31:36;6.88;;;2.25;;
59846;SDS011;45728;48.788;2.302;2023-04-23T01:34:02;5.10;;;2.33;;
59846;SDS011;45728;48.788;2.302;2023-04-23T01:36:29;6.07;;;2.50;;
59846;SDS011;45728;48.788;2.302;2023-04-23T01:38:56;7.20;;;2.30;;
59846;SDS011;45728;48.788;2.302;2023-04-23T01:41:22;7.03;;;2.50;;
59846;SDS011;45728;48.788;2.302;2023-04-23T01:43:48;6.28;;;2.10;;
59846;SDS011;45728;48.788;2.302;2023-04-23T01:46:14;5.05;;;2.13;;
59846;SDS011;45728;48.788;2.302;2023-04-23T01:48:40;18.27;;;2.85;;
59846;SDS011;45728;48.788;2.302;2023-04-23T01:51:07;9.05;;;2.40;;
59846;SDS011;45728;48.788;2.302;2023-04-23T01:53:33;6.93;;;2.65;;
59846;SDS011;45728;48.788;2.302;2023-04-23T01:55:59;6.63;;;2.70;;
59846;SDS011;45728;48.788;2.302;2023-04-23T01:58:26;8.55;;;2.60;;
59846;SDS011;45728;48.788;2.302;2023-04-23T02:00:52;9.30;;;2.88;;
59846;SDS011;45728;48.788;2.302;2023-04-23T02:03:18;8.70;;;2.33;;
59846;SDS011;45728;48.788;2.302;2023-04-23T02:05:44;8.20;;;2.35;;
59846;SDS011;45728;48.788;2.302;2023-04-23T02:08:11;8.50;;;3.08;;
59846;SDS011;45728;48.788;2.302;2023-04-23T02:10:37;4.80;;;2.47;;
59846;SDS011;45728;48.788;2.302;2023-04-23T02:13:03;10.57;;;2.55;;
59846;SDS011;45728;48.788;2.302;2023-04-23T02:15:29;7.53;;;2.45;;
59846;SDS011;45728;48.788;2.302;2023-04-23T02:17:56;9.57;;;2.97;;
59846;SDS011;45728;48.788;2.302;2023-04-23T02:20:22;7.07;;;2.92;;
59846;SDS011;45728;48.788;2.302;2023-04-23T02:22:49;9.10;;;2.72;;
59846;SDS011;45728;48.788;2.302;2023-04-23T02:25:16;8.00;;;3.00;;
59846;SDS011;45728;48.788;2.302;2023-04-23T02:27:43;7.53;;;3.28;;
59846;SDS011;45728;48.788;2.302;2023-04-23T02:30:09;6.63;;;2.80;;
59846;SDS011;45728;48.788;2.302;2023-04-23T02:32:36;8.45;;;3.25;;
59846;SDS011;45728;48.788;2.302;2023-04-23T02:35:03;7.60;;;3.08;;
59846;SDS011;45728;48.788;2.302;2023-04-23T02:37:31;7.85;;;3.35;;
59846;SDS011;45728;48.788;2.302;2023-04-23T02:39:58;6.60;;;3.28;;
59846;SDS011;45728;48.788;2.302;2023-04-23T02:42:24;7.25;;;2.88;;
59846;SDS011;45728;48.788;2.302;2023-04-23T02:44:50;5.78;;;3.15;;
59846;SDS011;45728;48.788;2.302;2023-04-23T02:47:16;10.80;;;3.55;;
59846;SDS011;45728;48.788;2.302;2023-04-23T02:49:42;6.82;;;3.00;;
59846;SDS011;45728;48.788;2.302;2023-04-23T02:52:08;8.50;;;3.65;;
59846;SDS011;45728;48.788;2.302;2023-04-23T02:54:34;7.47;;;3.50;;
59846;SDS011;45728;48.788;2.302;2023-04-23T02:57:04;8.38;;;3.53;;
59846;SDS011;45728;48.788;2.302;2023-04-23T02:59:30;10.25;;;3.65;;
59846;SDS011;45728;48.788;2.302;2023-04-23T03:01:56;8.90;;;3.35;;
59846;SDS011;45728;48.788;2.302;2023-04-23T03:04:22;7.38;;;3.50;;
59846;SDS011;45728;48.788;2.302;2023-04-23T03:06:48;7.28;;;3.88;;
59846;SDS011;45728;48.788;2.302;2023-04-23T03:09:15;7.75;;;3.70;;
59846;SDS011;45728;48.788;2.302;2023-04-23T03:11:41;9.07;;;4.00;;
59846;SDS011;45728;48.788;2.302;2023-04-23T03:14:07;10.82;;;4.43;;
59846;SDS011;45728;48.788;2.302;2023-04-23T03:16:33;6.72;;;3.70;;
59846;SDS011;45728;48.788;2.302;2023-04-23T03:18:59;8.90;;;4.07;;
59846;SDS011;45728;48.788;2.302;2023-04-23T03:21:26;11.90;;;4.55;;
59846;SDS011;45728;48.788;2.302;2023-04-23T03:23:52;7.70;;;3.80;;
59846;SDS011;45728;48.788;2.302;2023-04-23T03:26:18;7.13;;;4.15;;
59846;SDS011;45728;48.788;2.302;2023-04-23T03:28:44;7.53;;;4.20;;
59846;SDS011;45728;48.788;2.302;2023-04-23T03:31:10;14.15;;;3.72;;
59846;SDS011;45728;48.788;2.302;2023-04-23T03:33:36;8.15;;;3.90;;
59846;SDS011;45728;48.788;2.302;2023-04-23T03:36:02;9.65;;;4.13;;
59846;SDS011;45728;48.788;2.302;2023-04-23T03:38:28;10.73;;;4.15;;
59846;SDS011;45728;48.788;2.302;2023-04-23T03:40:54;11.40;;;4.40;;
59846;SDS011;45728;48.788;2.302;2023-04-23T03:43:21;8.95;;;3.95;;
59846;SDS011;45728;48.788;2.302;2023-04-23T03:45:47;8.77;;;4.15;;
59846;SDS011;45728;48.788;2.302;2023-04-23T03:48:13;6.50;;;3.72;;
59846;SDS011;45728;48.788;2.302;2023-04-23T03:50:39;9.23;;;4.57;;
59846;SDS011;45728;48.788;2.302;2023-04-23T03:53:05;8.85;;;3.97;;
59846;SDS011;45728;48.788;2.302;2023-04-23T03:55:32;8.30;;;4.30;;
59846;SDS011;45728;48.788;2.302;2023-04-23T03:57:58;6.47;;;3.40;;
59846;SDS011;45728;48.788;2.302;2023-04-23T04:00:27;9.05;;;4.03;;
59846;SDS011;45728;48.788;2.302;2023-04-23T04:02:54;13.27;;;4.03;;
59846;SDS011;45728;48.788;2.302;2023-04-23T04:05:20;9.38;;;4.07;;
59846;SDS011;45728;48.788;2.302;2023-04-23T04:07:47;10.30;;;3.67;;
59846;SDS011;45728;48.788;2.302;2023-04-23T04:10:13;12.93;;;3.60;;
59846;SDS011;45728;48.788;2.302;2023-04-23T04:12:39;11.60;;;3.90;;
59846;SDS011;45728;48.788;2.302;2023-04-23T04:15:06;10.27;;;4.00;;
59846;SDS011;45728;48.788;2.302;2023-04-23T04:17:33;9.63;;;4.10;;
59846;SDS011;45728;48.788;2.302;2023-04-23T04:19:59;14.75;;;4.43;;
59846;SDS011;45728;48.788;2.302;2023-04-23T04:22:25;11.43;;;4.47;;
59846;SDS011;45728;48.788;2.302;2023-04-23T04:24:51;12.45;;;4.65;;
59846;SDS011;45728;48.788;2.302;2023-04-23T04:27:17;9.23;;;4.32;;
59846;SDS011;45728;48.788;2.302;2023-04-23T04:29:43;9.52;;;3.67;;
59846;SDS011;45728;48.788;2.302;2023-04-23T04:32:09;9.20;;;4.47;;
59846;SDS011;45728;48.788;2.302;2023-04-23T04:34:36;8.93;;;4.00;;
59846;SDS011;45728;48.788;2.302;2023-04-23T04:37:02;9.23;;;4.28;;
59846;SDS011;45728;48.788;2.302;2023-04-23T04:39:28;11.43;;;4.28;;
59846;SDS011;45728;48.788;2.302;2023-04-23T04:41:55;11.80;;;4.03;;
59846;SDS011;45728;48.788;2.302;2023-04-23T04:44:22;9.38;;;4.50;;
59846;SDS011;45728;48.788;2.302;2023-04-23T04:46:48;8.15;;;3.90;;
59846;SDS011;45728;48.788;2.302;2023-04-23T04:49:14;11.15;;;3.88;;
59846;SDS011;45728;48.788;2.302;2023-04-23T04:51:40;11.70;;;3.92;;
59846;SDS011;45728;48.788;2.302;2023-04-23T04:54:06;14.95;;;3.92;;
59846;SDS011;45728;48.788;2.302;2023-04-23T04:56:33;9.57;;;4.03;;
59846;SDS011;45728;48.788;2.302;2023-04-23T04:58:59;9.18;;;3.97;;
59846;SDS011;45728;48.788;2.302;2023-04-23T05:01:26;10.85;;;4.03;;
59846;SDS011;45728;48.788;2.302;2023-04-23T05:03:56;8.82;;;3.90;;
59846;SDS011;45728;48.788;2.302;2023-04-23T05:06:22;6.90;;;3.58;;
59846;SDS011;45728;48.788;2.302;2023-04-23T05:08:48;11.23;;;3.75;;
59846;SDS011;45728;48.788;2.302;2023-04-23T05:11:15;7.80;;;3.75;;
59846;SDS011;45728;48.788;2.302;2023-04-23T05:13:42;8.38;;;3.38;;
59846;SDS011;45728;48.788;2.302;2023-04-23T05:16:09;9.45;;;3.35;;
59846;SDS011;45728;48.788;2.302;2023-04-23T05:18:36;7.15;;;3.70;;
59846;SDS011;45728;48.788;2.302;2023-04-23T05:21:03;8.32;;;3.60;;
59846;SDS011;45728;48.788;2.302;2023-04-23T05:23:31;7.22;;;3.63;;
59846;SDS011;45728;48.788;2.302;2023-04-23T05:25:57;6.22;;;3.40;;
59846;SDS011;45728;48.788;2.302;2023-04-23T05:28:23;9.70;;;3.13;;
59846;SDS011;45728;48.788;2.302;2023-04-23T05:30:50;10.02;;;3.58;;
59846;SDS011;45728;48.788;2.302;2023-04-23T05:33:16;9.57;;;3.25;;
59846;SDS011;45728;48.788;2.302;2023-04-23T05:35:42;8.70;;;3.28;;
59846;SDS011;45728;48.788;2.302;2023-04-23T05:38:09;7.30;;;3.35;;
59846;SDS011;45728;48.788;2.302;2023-04-23T05:40:35;11.88;;;3.17;;
59846;SDS011;45728;48.788;2.302;2023-04-23T05:43:01;7.13;;;2.85;;
59846;SDS011;45728;48.788;2.302;2023-04-23T05:45:27;12.85;;;3.65;;
59846;SDS011;45728;48.788;2.302;2023-04-23T05:47:53;10.02;;;3.05;;
59846;SDS011;45728;48.788;2.302;2023-04-23T05:50:19;12.30;;;3.33;;
59846;SDS011;45728;48.788;2.302;2023-04-23T05:52:46;9.95;;;3.00;;
59846;SDS011;45728;48.788;2.302;2023-04-23T05:55:12;11.65;;;3.40;;
59846;SDS011;45728;48.788;2.302;2023-04-23T05:57:42;12.32;;;3.65;;
59846;SDS011;45728;48.788;2.302;2023-04-23T06:00:09;7.95;;;2.92;;
59846;SDS011;45728;48.788;2.302;2023-04-23T06:02:36;8.43;;;3.20;;
59846;SDS011;45728;48.788;2.302;2023-04-23T06:05:03;7.57;;;3.10;;
59846;SDS011;45728;48.788;2.302;2023-04-23T06:07:30;8.20;;;3.15;;
59846;SDS011;45728;48.788;2.302;2023-04-23T06:09:57;8.20;;;3.20;;
59846;SDS011;45728;48.788;2.302;2023-04-23T06:12:23;6.22;;;2.88;;
59846;SDS011;45728;48.788;2.302;2023-04-23T06:14:49;9.98;;;3.58;;
59846;SDS011;45728;48.788;2.302;2023-04-23T06:17:16;8.77;;;3.22;;
59846;SDS011;45728;48.788;2.302;2023-04-23T06:19:42;9.68;;;3.38;;
59846;SDS011;45728;48.788;2.302;2023-04-23T06:22:08;9.38;;;3.35;;
59846;SDS011;45728;48.788;2.302;2023-04-23T06:24:34;8.20;;;3.20;;
59846;SDS011;45728;48.788;2.302;2023-04-23T06:27:00;8.98;;;3.70;;
59846;SDS011;45728;48.788;2.302;2023-04-23T06:29:27;7.70;;;3.72;;
59846;SDS011;45728;48.788;2.302;2023-04-23T06:31:54;7.80;;;2.80;;
59846;SDS011;45728;48.788;2.302;2023-04-23T06:34:21;11.10;;;3.60;;
59846;SDS011;45728;48.788;2.302;2023-04-23T06:36:49;11.65;;;3.70;;
59846;SDS011;45728;48.788;2.302;2023-04-23T06:39:16;8.93;;;3.58;;
59846;SDS011;45728;48.788;2.302;2023-04-23T06:41:42;12.38;;;4.18;;
59846;SDS011;45728;48.788;2.302;2023-04-23T06:44:08;10.57;;;3.90;;
59846;SDS011;45728;48.788;2.302;2023-04-23T06:46:34;7.53;;;3.45;;
59846;SDS011;45728;48.788;2.302;2023-04-23T06:49:00;11.25;;;3.95;;
59846;SDS011;45728;48.788;2.302;2023-04-23T06:51:26;8.63;;;4.15;;
59846;SDS011;45728;48.788;2.302;2023-04-23T06:53:53;11.15;;;4.47;;
59846;SDS011;45728;48.788;2.302;2023-04-23T06:56:19;9.00;;;3.92;;
59846;SDS011;45728;48.788;2.302;2023-04-23T06:58:46;10.90;;;4.45;;
59846;SDS011;45728;48.788;2.302;2023-04-23T07:01:12;7.97;;;4.40;;
59846;SDS011;45728;48.788;2.302;2023-04-23T07:03:38;6.60;;;4.20;;
59846;SDS011;45728;48.788;2.302;2023-04-23T07:06:06;9.20;;;4.60;;
59846;SDS011;45728;48.788;2.302;2023-04-23T07:08:32;9.82;;;4.65;;
59846;SDS011;45728;48.788;2.302;2023-04-23T07:10:58;9.40;;;4.57;;
59846;SDS011;45728;48.788;2.302;2023-04-23T07:13:24;9.98;;;4.55;;
59846;SDS011;45728;48.788;2.302;2023-04-23T07:15:50;6.22;;;4.60;;
59846;SDS011;45728;48.788;2.302;2023-04-23T07:18:16;9.30;;;4.55;;
59846;SDS011;45728;48.788;2.302;2023-04-23T07:20:43;7.68;;;4.57;;
59846;SDS011;45728;48.788;2.302;2023-04-23T07:23:09;8.68;;;4.85;;
59846;SDS011;45728;48.788;2.302;2023-04-23T07:25:35;11.35;;;5.30;;
59846;SDS011;45728;48.788;2.302;2023-04-23T07:28:01;8.48;;;5.22;;
59846;SDS011;45728;48.788;2.302;2023-04-23T07:30:27;9.05;;;6.07;;
59846;SDS011;45728;48.788;2.302;2023-04-23T07:32:53;10.18;;;5.63;;
59846;SDS011;45728;48.788;2.302;2023-04-23T07:35:20;9.20;;;5.95;;
59846;SDS011;45728;48.788;2.302;2023-04-23T07:37:46;7.80;;;5.43;;
59846;SDS011;45728;48.788;2.302;2023-04-23T07:40:12;8.95;;;5.72;;
59846;SDS011;45728;48.788;2.302;2023-04-23T07:42:38;7.15;;;5.45;;
59846;SDS011;45728;48.788;2.302;2023-04-23T07:45:04;8.23;;;6.28;;
59846;SDS011;45728;48.788;2.302;2023-04-23T07:47:31;7.63;;;5.60;;
59846;SDS011;45728;48.788;2.302;2023-04-23T07:49:57;8.65;;;7.03;;
59846;SDS011;45728;48.788;2.302;2023-04-23T07:52:23;10.75;;;6.30;;
59846;SDS011;45728;48.788;2.302;2023-04-23T07:54:49;10.30;;;7.18;;
59846;SDS011;45728;48.788;2.302;2023-04-23T07:57:15;8.93;;;6.05;;
59846;SDS011;45728;48.788;2.302;2023-04-23T07:59:41;8.77;;;7.13;;
59846;SDS011;45728;48.788;2.302;2023-04-23T08:02:08;7.72;;;6.85;;
59846;SDS011;45728;48.788;2.302;2023-04-23T08:04:34;8.20;;;6.00;;
59846;SDS011;45728;48.788;2.302;2023-04-23T08:07:00;11.77;;;5.85;;
59846;SDS011;45728;48.788;2.302;2023-04-23T08:09:26;9.30;;;6.63;;
59846;SDS011;45728;48.788;2.302;2023-04-23T08:11:52;8.77;;;6.72;;
59846;SDS011;45728;48.788;2.302;2023-04-23T08:14:19;7.32;;;6.63;;
59846;SDS011;45728;48.788;2.302;2023-04-23T08:16:45;7.68;;;6.72;;
59846;SDS011;45728;48.788;2.302;2023-04-23T08:19:11;9.77;;;6.88;;
59846;SDS011;45728;48.788;2.302;2023-04-23T08:21:37;8.02;;;6.88;;
59846;SDS011;45728;48.788;2.302;2023-04-23T08:24:04;11.05;;;7.05;;
59846;SDS011;45728;48.788;2.302;2023-04-23T08:26:32;8.77;;;6.78;;
59846;SDS011;45728;48.788;2.302;2023-04-23T08:28:58;9.02;;;6.85;;
59846;SDS011;45728;48.788;2.302;2023-04-23T08:31:27;9.63;;;6.60;;
59846;SDS011;45728;48.788;2.302;2023-04-23T08:33:53;7.78;;;6.25;;
59846;SDS011;45728;48.788;2.302;2023-04-23T08:36:20;9.23;;;6.15;;
59846;SDS011;45728;48.788;2.302;2023-04-23T08:38:46;8.00;;;6.35;;
59846;SDS011;45728;48.788;2.302;2023-04-23T08:41:13;7.50;;;6.68;;
59846;SDS011;45728;48.788;2.302;2023-04-23T08:46:07;7.90;;;7.10;;
59846;SDS011;45728;48.788;2.302;2023-04-23T08:48:37;7.88;;;6.88;;
59846;SDS011;45728;48.788;2.302;2023-04-23T08:51:05;8.45;;;7.25;;
59846;SDS011;45728;48.788;2.302;2023-04-23T08:53:34;8.27;;;6.75;;
59846;SDS011;45728;48.788;2.302;2023-04-23T08:56:01;7.70;;;7.00;;
59846;SDS011;45728;48.788;2.302;2023-04-23T08:58:28;8.10;;;7.28;;
59846;SDS011;45728;48.788;2.302;2023-04-23T09:00:55;10.15;;;8.02;;
59846;SDS011;45728;48.788;2.302;2023-04-23T09:03:22;9.93;;;7.20;;
59846;SDS011;45728;48.788;2.302;2023-04-23T09:05:50;10.30;;;7.82;;
59846;SDS011;45728;48.788;2.302;2023-04-23T09:08:20;10.32;;;8.02;;
59846;SDS011;45728;48.788;2.302;2023-04-23T09:10:46;11.70;;;8.15;;
59846;SDS011;45728;48.788;2.302;2023-04-23T09:13:14;9.05;;;7.45;;
59846;SDS011;45728;48.788;2.302;2023-04-23T09:15:41;7.70;;;7.00;;
59846;SDS011;45728;48.788;2.302;2023-04-23T09:18:08;9.05;;;7.25;;
59846;SDS011;45728;48.788;2.302;2023-04-23T09:20:35;9.52;;;7.05;;
59846;SDS011;45728;48.788;2.302;2023-04-23T09:23:07;7.88;;;6.57;;
59846;SDS011;45728;48.788;2.302;2023-04-23T09:25:33;6.78;;;6.10;;
59846;SDS011;45728;48.788;2.302;2023-04-23T09:28:01;6.78;;;6.07;;
59846;SDS011;45728;48.788;2.302;2023-04-23T09:30:27;6.53;;;5.90;;
59846;SDS011;45728;48.788;2.302;2023-04-23T09:32:53;6.75;;;5.95;;
59846;SDS011;45728;48.788;2.302;2023-04-23T09:35:19;6.57;;;5.93;;
59846;SDS011;45728;48.788;2.302;2023-04-23T09:37:46;7.03;;;6.20;;
59846;SDS011;45728;48.788;2.302;2023-04-23T09:40:17;8.40;;;6.30;;
59846;SDS011;45728;48.788;2.302;2023-04-23T09:42:47;6.80;;;6.07;;
59846;SDS011;45728;48.788;2.302;2023-04-23T09:45:15;7.38;;;5.82;;
59846;SDS011;45728;48.788;2.302;2023-04-23T09:47:49;6.22;;;5.22;;
59846;SDS011;45728;48.788;2.302;2023-04-23T09:50:16;6.18;;;4.97;;
59846;SDS011;45728;48.788;2.302;2023-04-23T09:52:42;9.40;;;5.40;;
59846;SDS011;45728;48.788;2.302;2023-04-23T09:55:08;6.28;;;5.55;;
59846;SDS011;45728;48.788;2.302;2023-04-23T09:57:35;6.28;;;5.60;;
59846;SDS011;45728;48.788;2.302;2023-04-23T10:00:14;7.00;;;6.00;;
59846;SDS011;45728;48.788;2.302;2023-04-23T10:02:46;6.53;;;4.90;;
59846;SDS011;45728;48.788;2.302;2023-04-23T10:05:17;6.78;;;5.03;;
59846;SDS011;45728;48.788;2.302;2023-04-23T10:07:45;6.13;;;5.03;;
59846;SDS011;45728;48.788;2.302;2023-04-23T10:10:16;7.20;;;4.95;;
59846;SDS011;45728;48.788;2.302;2023-04-23T10:12:43;5.97;;;4.43;;
59846;SDS011;45728;48.788;2.302;2023-04-23T10:15:10;6.43;;;4.70;;
59846;SDS011;45728;48.788;2.302;2023-04-23T10:17:37;5.18;;;4.38;;
59846;SDS011;45728;48.788;2.302;2023-04-23T10:20:05;6.18;;;4.28;;
59846;SDS011;45728;48.788;2.302;2023-04-23T10:22:33;5.55;;;4.28;;
59846;SDS011;45728;48.788;2.302;2023-04-23T10:25:03;5.43;;;4.18;;
59846;SDS011;45728;48.788;2.302;2023-04-23T10:27:35;4.88;;;4.22;;
59846;SDS011;45728;48.788;2.302;2023-04-23T10:30:05;5.25;;;3.88;;
59846;SDS011;45728;48.788;2.302;2023-04-23T10:32:33;5.90;;;4.25;;
59846;SDS011;45728;48.788;2.302;2023-04-23T10:34:59;4.38;;;3.80;;
59846;SDS011;45728;48.788;2.302;2023-04-23T10:37:25;6.18;;;4.40;;
59846;SDS011;45728;48.788;2.302;2023-04-23T10:39:53;4.60;;;3.60;;
59846;SDS011;45728;48.788;2.302;2023-04-23T10:42:21;4.25;;;3.38;;
59846;SDS011;45728;48.788;2.302;2023-04-23T10:44:48;4.55;;;3.05;;
59846;SDS011;45728;48.788;2.302;2023-04-23T10:47:14;4.88;;;3.55;;
59846;SDS011;45728;48.788;2.302;2023-04-23T10:49:42;3.97;;;3.42;;
59846;SDS011;45728;48.788;2.302;2023-04-23T10:52:10;3.53;;;3.20;;
59846;SDS011;45728;48.788;2.302;2023-04-23T10:54:40;5.00;;;3.20;;
59846;SDS011;45728;48.788;2.302;2023-04-23T10:57:07;4.30;;;3.38;;
59846;SDS011;45728;48.788;2.302;2023-04-23T10:59:37;4.50;;;3.58;;
59846;SDS011;45728;48.788;2.302;2023-04-23T11:02:08;5.18;;;3.22;;
59846;SDS011;45728;48.788;2.302;2023-04-23T11:04:40;4.45;;;3.13;;
59846;SDS011;45728;48.788;2.302;2023-04-23T11:07:07;3.67;;;2.70;;
59846;SDS011;45728;48.788;2.302;2023-04-23T11:09:48;3.20;;;2.83;;
59846;SDS011;45728;48.788;2.302;2023-04-23T11:14:50;3.17;;;2.47;;
59846;SDS011;45728;48.788;2.302;2023-04-23T11:17:20;4.18;;;2.60;;
59846;SDS011;45728;48.788;2.302;2023-04-23T11:22:50;2.83;;;2.53;;
59846;SDS011;45728;48.788;2.302;2023-04-23T11:27:46;3.10;;;2.80;;
59846;SDS011;45728;48.788;2.302;2023-04-23T11:30:13;4.07;;;2.60;;
59846;SDS011;45728;48.788;2.302;2023-04-23T11:32:40;2.70;;;2.50;;
59846;SDS011;45728;48.788;2.302;2023-04-23T11:35:09;4.13;;;2.60;;
59846;SDS011;45728;48.788;2.302;2023-04-23T11:40:09;4.70;;;3.13;;
59846;SDS011;45728;48.788;2.302;2023-04-23T11:42:40;5.47;;;2.63;;
59846;SDS011;45728;48.788;2.302;2023-04-23T11:45:14;3.00;;;2.70;;
59846;SDS011;45728;48.788;2.302;2023-04-23T11:47:42;3.88;;;2.88;;
59846;SDS011;45728;48.788;2.302;2023-04-23T11:50:08;5.65;;;3.35;;
59846;SDS011;45728;48.788;2.302;2023-04-23T11:52:35;3.10;;;2.60;;
59846;SDS011;45728;48.788;2.302;2023-04-23T11:55:01;5.30;;;2.15;;
59846;SDS011;45728;48.788;2.302;2023-04-23T11:57:30;5.45;;;2.70;;
59846;SDS011;45728;48.788;2.302;2023-04-23T12:00:00;3.05;;;2.13;;
59846;SDS011;45728;48.788;2.302;2023-04-23T12:02:36;2.95;;;2.05;;
59846;SDS011;45728;48.788;2.302;2023-04-23T12:05:05;3.15;;;2.30;;
59846;SDS011;45728;48.788;2.302;2023-04-23T12:07:33;3.22;;;2.05;;
59846;SDS011;45728;48.788;2.302;2023-04-23T12:09:59;7.20;;;2.60;;
59846;SDS011;45728;48.788;2.302;2023-04-23T12:12:32;4.50;;;2.22;;
59846;SDS011;45728;48.788;2.302;2023-04-23T12:15:03;3.50;;;1.52;;
59846;SDS011;45728;48.788;2.302;2023-04-23T12:17:31;2.10;;;1.30;;
59846;SDS011;45728;48.788;2.302;2023-04-23T12:19:57;3.17;;;1.40;;
59846;SDS011;45728;48.788;2.302;2023-04-23T12:22:26;3.92;;;1.15;;
59846;SDS011;45728;48.788;2.302;2023-04-23T12:24:52;3.97;;;1.67;;
59846;SDS011;45728;48.788;2.302;2023-04-23T12:27:22;3.83;;;1.17;;
59846;SDS011;45728;48.788;2.302;2023-04-23T12:29:57;1.50;;;0.90;;
59846;SDS011;45728;48.788;2.302;2023-04-23T12:32:25;2.05;;;0.80;;
59846;SDS011;45728;48.788;2.302;2023-04-23T12:34:52;2.70;;;0.90;;
59846;SDS011;45728;48.788;2.302;2023-04-23T12:37:27;1.98;;;0.65;;
59846;SDS011;45728;48.788;2.302;2023-04-23T12:39:55;1.42;;;0.68;;
59846;SDS011;45728;48.788;2.302;2023-04-23T12:42:23;1.85;;;0.63;;
59846;SDS011;45728;48.788;2.302;2023-04-23T12:44:50;4.95;;;0.70;;
59846;SDS011;45728;48.788;2.302;2023-04-23T12:47:16;3.83;;;0.70;;
59846;SDS011;45728;48.788;2.302;2023-04-23T12:49:45;1.23;;;0.50;;
59846;SDS011;45728;48.788;2.302;2023-04-23T12:52:17;0.70;;;0.63;;
59846;SDS011;45728;48.788;2.302;2023-04-23T12:54:43;1.65;;;0.70;;
59846;SDS011;45728;48.788;2.302;2023-04-23T12:57:10;3.63;;;0.65;;
59846;SDS011;45728;48.788;2.302;2023-04-23T12:59:37;3.03;;;0.70;;
59846;SDS011;45728;48.788;2.302;2023-04-23T13:02:03;1.27;;;0.60;;
59846;SDS011;45728;48.788;2.302;2023-04-23T13:04:31;2.67;;;0.45;;
59846;SDS011;45728;48.788;2.302;2023-04-23T13:06:58;1.13;;;0.80;;
59846;SDS011;45728;48.788;2.302;2023-04-23T13:09:25;1.08;;;0.73;;
59846;SDS011;45728;48.788;2.302;2023-04-23T13:11:52;1.50;;;0.93;;
59846;SDS011;45728;48.788;2.302;2023-04-23T13:14:18;1.02;;;0.70;;
59846;SDS011;45728;48.788;2.302;2023-04-23T13:16:45;1.02;;;0.68;;
59846;SDS011;45728;48.788;2.302;2023-04-23T13:19:12;1.40;;;0.80;;
59846;SDS011;45728;48.788;2.302;2023-04-23T13:21:38;1.88;;;0.52;;
59846;SDS011;45728;48.788;2.302;2023-04-23T13:24:04;0.40;;;0.40;;
59846;SDS011;45728;48.788;2.302;2023-04-23T13:26:30;0.82;;;0.45;;
59846;SDS011;45728;48.788;2.302;2023-04-23T13:28:57;0.52;;;0.50;;
59846;SDS011;45728;48.788;2.302;2023-04-23T13:31:24;1.10;;;0.60;;
59846;SDS011;45728;48.788;2.302;2023-04-23T13:33:51;1.48;;;0.70;;
59846;SDS011;45728;48.788;2.302;2023-04-23T13:36:18;0.55;;;0.50;;
59846;SDS011;45728;48.788;2.302;2023-04-23T13:38:45;1.38;;;0.40;;
59846;SDS011;45728;48.788;2.302;2023-04-23T13:41:11;1.38;;;0.50;;
59846;SDS011;45728;48.788;2.302;2023-04-23T13:43:37;0.68;;;0.47;;
59846;SDS011;45728;48.788;2.302;2023-04-23T13:46:03;0.25;;;0.22;;
59846;SDS011;45728;48.788;2.302;2023-04-23T13:48:30;1.55;;;0.52;;
59846;SDS011;45728;48.788;2.302;2023-04-23T13:50:59;0.82;;;0.40;;
59846;SDS011;45728;48.788;2.302;2023-04-23T13:53:26;0.30;;;0.30;;
59846;SDS011;45728;48.788;2.302;2023-04-23T13:55:53;0.20;;;0.20;;
59846;SDS011;45728;48.788;2.302;2023-04-23T13:58:20;0.63;;;0.30;;
59846;SDS011;45728;48.788;2.302;2023-04-23T14:00:46;1.08;;;0.43;;
59846;SDS011;45728;48.788;2.302;2023-04-23T14:03:12;0.57;;;0.40;;
59846;SDS011;45728;48.788;2.302;2023-04-23T14:05:39;0.40;;;0.40;;
59846;SDS011;45728;48.788;2.302;2023-04-23T14:08:05;0.77;;;0.40;;
59846;SDS011;45728;48.788;2.302;2023-04-23T14:10:32;0.85;;;0.60;;
59846;SDS011;45728;48.788;2.302;2023-04-23T14:12:59;1.70;;;0.45;;
59846;SDS011;45728;48.788;2.302;2023-04-23T14:15:26;1.10;;;0.70;;
59846;SDS011;45728;48.788;2.302;2023-04-23T14:17:52;1.08;;;0.70;;
59846;SDS011;45728;48.788;2.302;2023-04-23T14:20:20;1.58;;;0.63;;
59846;SDS011;45728;48.788;2.302;2023-04-23T14:22:50;0.65;;;0.50;;
59846;SDS011;45728;48.788;2.302;2023-04-23T14:25:45;1.67;;;0.50;;
59846;SDS011;45728;48.788;2.302;2023-04-23T14:28:22;4.03;;;1.40;;
59846;SDS011;45728;48.788;2.302;2023-04-23T14:30:55;0.98;;;0.73;;
59846;SDS011;45728;48.788;2.302;2023-04-23T14:33:22;2.67;;;0.90;;
59846;SDS011;45728;48.788;2.302;2023-04-23T14:35:48;3.58;;;1.20;;
59846;SDS011;45728;48.788;2.302;2023-04-23T14:38:14;0.75;;;0.40;;
59846;SDS011;45728;48.788;2.302;2023-04-23T14:40:40;0.85;;;0.43;;
59846;SDS011;45728;48.788;2.302;2023-04-23T14:43:06;0.40;;;0.35;;
59846;SDS011;45728;48.788;2.302;2023-04-23T14:45:32;1.52;;;0.70;;
59846;SDS011;45728;48.788;2.302;2023-04-23T14:47:59;1.52;;;0.50;;
59846;SDS011;45728;48.788;2.302;2023-04-23T14:50:25;1.45;;;0.60;;
59846;SDS011;45728;48.788;2.302;2023-04-23T14:52:53;1.20;;;0.60;;
59846;SDS011;45728;48.788;2.302;2023-04-23T14:55:22;3.03;;;0.57;;
59846;SDS011;45728;48.788;2.302;2023-04-23T14:57:48;2.40;;;0.50;;